Metar z połowy godziny Komunikat METAR ze strony awiacja.imgw.pl Metar G30 EPLB METAR EPLB 200330Z 26012KT 9999 FEW012 05/03 Q1013 =